Time;durP1;ratioP1;P1;durP2;ratioP2;P2;SDS_P1;SDS_P2;PMS_P1;PMS_P2;Temp;Humidity;BMP_temperature;BMP_pressure;BME280_temperature;BME280_humidity;BME280_pressure;Samples;Min_cycle;Max_cycle;Signal;HPM_P1;HPM_P2
2023/04/14 00:00:48;;;;;;;2.33;1.57;;;8.40;99.90;;;;;;5079373;28;20866;-76
2023/04/14 00:03:16;;;;;;;2.70;1.33;;;8.40;99.90;;;;;;5063879;28;20631;-76
2023/04/14 00:05:44;;;;;;;3.20;1.37;;;8.40;99.90;;;;;;5080984;28;21167;-74
2023/04/14 00:08:11;;;;;;;4.17;1.40;;;8.40;99.90;;;;;;5091361;28;20436;-75
2023/04/14 00:10:38;;;;;;;2.00;1.53;;;8.20;99.90;;;;;;5082144;28;20450;-78
2023/04/14 00:13:05;;;;;;;13.03;1.80;;;8.20;99.90;;;;;;5090112;28;20473;-75
2023/04/14 00:15:32;;;;;;;4.70;2.20;;;8.20;99.90;;;;;;5088529;28;20921;-75
2023/04/14 00:18:00;;;;;;;13.50;1.60;;;8.20;99.90;;;;;;5056081;28;20462;-75
2023/04/14 00:20:27;;;;;;;1.93;1.53;;;8.20;99.90;;;;;;5081844;28;20463;-75
2023/04/14 00:22:54;;;;;;;4.00;1.80;;;8.00;99.90;;;;;;5086664;28;20481;-75
2023/04/14 00:25:22;;;;;;;3.20;1.70;;;7.90;99.90;;;;;;5087909;28;20428;-76
2023/04/14 00:27:49;;;;;;;5.53;1.67;;;7.90;99.90;;;;;;5084596;28;20463;-75
2023/04/14 00:30:17;;;;;;;1.80;1.53;;;7.80;99.90;;;;;;5092869;28;20469;-76
2023/04/14 00:32:44;;;;;;;1.67;1.57;;;7.80;99.90;;;;;;5091385;28;20998;-77
2023/04/14 00:35:13;;;;;;;1.70;1.60;;;7.70;99.90;;;;;;5089588;28;20456;-75
2023/04/14 00:37:41;;;;;;;2.83;2.07;;;7.60;99.90;;;;;;5087852;28;20464;-75
2023/04/14 00:40:10;;;;;;;2.40;1.50;;;7.60;99.90;;;;;;5082683;28;20852;-76
2023/04/14 00:42:43;;;;;;;4.33;3.87;;;7.50;99.90;;;;;;5084558;28;20481;-75
2023/04/14 00:45:11;;;;;;;2.63;1.40;;;7.40;99.90;;;;;;5083764;28;20543;-75
2023/04/14 00:47:40;;;;;;;3.53;1.43;;;7.40;99.90;;;;;;5083185;28;20446;-75
2023/04/14 00:50:09;;;;;;;3.40;1.50;;;7.40;99.90;;;;;;5059183;28;20478;-75
2023/04/14 00:52:39;;;;;;;6.10;1.43;;;7.40;99.90;;;;;;5091752;28;20478;-75
2023/04/14 00:55:11;;;;;;;2.03;1.20;;;7.20;99.90;;;;;;5080813;28;20462;-76
2023/04/14 00:57:40;;;;;;;2.10;1.20;;;7.10;99.90;;;;;;5079190;28;20510;-76
2023/04/14 01:00:08;;;;;;;3.00;1.50;;;7.00;99.90;;;;;;5085307;28;20541;-74
2023/04/14 01:02:38;;;;;;;2.13;1.40;;;6.90;99.90;;;;;;5065115;28;20530;-74
2023/04/14 01:05:06;;;;;;;3.80;1.40;;;6.90;99.90;;;;;;5078610;28;20514;-75
2023/04/14 01:07:35;;;;;;;1.20;1.07;;;6.80;99.90;;;;;;5076421;28;20468;-75
2023/04/14 01:10:04;;;;;;;2.00;1.73;;;6.80;99.90;;;;;;5072974;28;20503;-75
2023/04/14 01:13:05;;;;;;;2.47;1.60;;;6.80;99.90;;;;;;5096959;28;20476;-74
2023/04/14 01:15:42;;;;;;;9.43;2.00;;;6.80;99.90;;;;;;5088409;28;20537;-77
2023/04/14 01:18:18;;;;;;;4.80;1.80;;;6.80;99.90;;;;;;5084338;28;20581;-74
2023/04/14 01:20:50;;;;;;;3.43;1.40;;;6.80;99.90;;;;;;5080714;28;20457;-74
2023/04/14 01:23:26;;;;;;;3.07;1.73;;;6.80;99.90;;;;;;5081857;28;20479;-75
2023/04/14 01:26:18;;;;;;;1.90;1.70;;;6.70;99.90;;;;;;5082599;28;20473;-74
2023/04/14 01:29:12;;;;;;;1.20;1.10;;;6.70;99.90;;;;;;5083413;28;20440;-76
2023/04/14 01:31:47;;;;;;;2.67;1.80;;;6.60;99.90;;;;;;5083904;28;20453;-75
2023/04/14 01:34:20;;;;;;;1.30;1.20;;;6.60;99.90;;;;;;5082260;28;20552;-75
2023/04/14 01:36:54;;;;;;;2.33;1.73;;;6.50;99.90;;;;;;5057569;28;20529;-76
2023/04/14 01:39:24;;;;;;;1.73;0.90;;;6.40;99.90;;;;;;5078246;28;20440;-75
2023/04/14 01:41:57;;;;;;;3.50;2.10;;;6.20;99.90;;;;;;5084495;28;20432;-75
2023/04/14 01:44:25;;;;;;;1.87;1.53;;;5.90;99.90;;;;;;5093988;28;20894;-75
2023/04/14 01:47:00;;;;;;;3.17;1.80;;;5.80;99.90;;;;;;5072489;28;20969;-77
2023/04/14 01:49:29;;;;;;;1.40;1.23;;;5.70;99.90;;;;;;5085984;28;20432;-75
2023/04/14 01:51:56;;;;;;;2.60;1.70;;;5.90;99.90;;;;;;5081129;28;20420;-75
2023/04/14 01:54:24;;;;;;;12.07;1.97;;;6.00;99.90;;;;;;5078883;28;20572;-75
2023/04/14 01:56:53;;;;;;;1.67;1.33;;;6.00;99.90;;;;;;5096350;28;20451;-75
2023/04/14 01:59:25;;;;;;;5.10;1.77;;;6.10;99.90;;;;;;5088503;28;20538;-74
2023/04/14 02:01:54;;;;;;;2.97;2.10;;;6.30;99.90;;;;;;5071315;28;20453;-75
2023/04/14 02:04:25;;;;;;;2.70;1.50;;;6.40;99.90;;;;;;5088797;28;20475;-75
2023/04/14 02:06:55;;;;;;;2.47;1.23;;;6.40;99.90;;;;;;5086056;28;20457;-75
2023/04/14 02:09:22;;;;;;;1.67;1.57;;;6.40;99.90;;;;;;5061673;28;20426;-75
2023/04/14 02:11:51;;;;;;;1.37;1.23;;;6.30;99.90;;;;;;5094998;28;20457;-77
2023/04/14 02:14:20;;;;;;;4.70;1.93;;;6.40;99.90;;;;;;5090435;28;21007;-75
2023/04/14 02:16:52;;;;;;;1.53;1.33;;;6.40;99.90;;;;;;5082744;28;20560;-75
2023/04/14 02:19:22;;;;;;;1.93;1.40;;;6.40;99.90;;;;;;5090783;28;20856;-74
2023/04/14 02:21:52;;;;;;;1.80;1.20;;;6.30;99.90;;;;;;5079294;28;20519;-75
2023/04/14 02:24:20;;;;;;;2.27;2.07;;;6.50;99.90;;;;;;5086427;28;20551;-74
2023/04/14 02:26:58;;;;;;;2.13;1.37;;;6.50;99.90;;;;;;5089394;28;20486;-74
2023/04/14 02:29:28;;;;;;;2.50;1.87;;;6.60;99.90;;;;;;5085020;28;21164;-74
2023/04/14 02:32:04;;;;;;;2.80;1.67;;;6.60;99.90;;;;;;5088519;28;20991;-76
2023/04/14 02:34:38;;;;;;;2.40;1.67;;;6.60;99.90;;;;;;5079100;28;20503;-75
2023/04/14 02:37:14;;;;;;;8.43;1.97;;;6.60;99.90;;;;;;5083417;28;21074;-74
2023/04/14 02:39:47;;;;;;;13.87;2.33;;;6.60;99.90;;;;;;5085419;28;20468;-76
2023/04/14 02:42:15;;;;;;;5.10;2.10;;;6.60;99.90;;;;;;5081370;28;20567;-75
2023/04/14 02:44:49;;;;;;;4.43;1.80;;;6.50;99.90;;;;;;5087029;28;20440;-74
2023/04/14 02:47:25;;;;;;;2.47;1.73;;;6.40;99.90;;;;;;5081752;28;20516;-74
2023/04/14 02:49:55;;;;;;;3.70;1.80;;;6.50;99.90;;;;;;5091530;28;20425;-74
2023/04/14 02:52:24;;;;;;;1.90;1.60;;;6.50;99.90;;;;;;5078448;28;20424;-75
2023/04/14 02:54:52;;;;;;;4.17;1.60;;;6.40;99.90;;;;;;5072198;28;20442;-75
2023/04/14 02:57:20;;;;;;;1.60;1.20;;;6.40;99.90;;;;;;5087256;28;20517;-75
2023/04/14 03:00:02;;;;;;;5.77;2.00;;;6.50;99.90;;;;;;5089231;28;20440;-75
2023/04/14 03:02:30;;;;;;;3.47;1.93;;;6.40;99.90;;;;;;5081782;28;20518;-74
2023/04/14 03:04:59;;;;;;;3.43;1.70;;;6.40;99.90;;;;;;5089288;28;20445;-74
2023/04/14 03:07:27;;;;;;;10.70;2.07;;;6.50;99.90;;;;;;5081213;28;20444;-74
2023/04/14 03:09:56;;;;;;;9.13;2.00;;;6.50;99.90;;;;;;5081021;28;20435;-74
2023/04/14 03:12:25;;;;;;;6.93;4.07;;;6.30;99.90;;;;;;5094268;28;20435;-74
2023/04/14 03:14:54;;;;;;;4.53;1.20;;;6.20;99.90;;;;;;5080039;28;20431;-75
2023/04/14 03:17:22;;;;;;;2.40;1.33;;;6.00;99.90;;;;;;5085936;28;20460;-74
2023/04/14 03:19:52;;;;;;;4.23;1.70;;;5.90;99.90;;;;;;5086652;28;20460;-76
2023/04/14 03:22:21;;;;;;;4.77;1.73;;;5.90;99.90;;;;;;5089114;28;20633;-76
2023/04/14 03:24:49;;;;;;;1.40;1.00;;;5.90;99.90;;;;;;5050304;28;20518;-74
2023/04/14 03:27:21;;;;;;;6.30;2.20;;;5.80;99.90;;;;;;5088310;28;20542;-74
2023/04/14 03:29:52;;;;;;;2.37;1.37;;;5.90;99.90;;;;;;5088133;28;20431;-77
2023/04/14 03:32:22;;;;;;;2.13;1.30;;;5.80;99.90;;;;;;5086142;28;20468;-74
2023/04/14 03:34:54;;;;;;;8.77;2.13;;;5.80;99.90;;;;;;5081915;28;20484;-74
2023/04/14 03:37:26;;;;;;;2.47;2.03;;;5.80;99.90;;;;;;5087370;28;20444;-74
2023/04/14 03:39:57;;;;;;;2.30;1.40;;;5.90;99.90;;;;;;5086993;28;21052;-76
2023/04/14 03:42:31;;;;;;;3.73;2.23;;;5.90;99.90;;;;;;5059055;28;21058;-76
2023/04/14 03:44:59;;;;;;;3.67;3.00;;;5.80;99.90;;;;;;5072439;28;20436;-75
2023/04/14 03:47:30;;;;;;;2.17;1.63;;;5.80;99.90;;;;;;5085355;28;20432;-75
2023/04/14 03:50:00;;;;;;;1.57;1.37;;;5.90;99.90;;;;;;5089937;28;20467;-74
2023/04/14 03:52:31;;;;;;;1.50;1.40;;;5.90;99.90;;;;;;5088092;28;20843;-76
2023/04/14 03:55:02;;;;;;;1.80;1.60;;;5.80;99.90;;;;;;5087765;28;20498;-76
2023/04/14 03:57:31;;;;;;;5.13;2.57;;;5.80;99.90;;;;;;5098877;28;20446;-75
2023/04/14 04:00:00;;;;;;;5.97;1.83;;;5.70;99.90;;;;;;5089172;28;20532;-75
2023/04/14 04:02:30;;;;;;;1.83;1.33;;;5.80;99.90;;;;;;5063494;28;20800;-76
2023/04/14 04:04:58;;;;;;;3.27;1.77;;;5.80;99.90;;;;;;5092425;28;20507;-74
2023/04/14 04:07:28;;;;;;;2.43;2.17;;;5.90;99.90;;;;;;5081430;28;20491;-76
2023/04/14 04:09:56;;;;;;;3.10;2.00;;;5.90;99.90;;;;;;5093112;28;20533;-76
2023/04/14 04:12:28;;;;;;;6.10;2.03;;;5.80;99.90;;;;;;5095114;28;20429;-76
2023/04/14 04:14:56;;;;;;;3.00;1.90;;;5.90;99.90;;;;;;5086643;28;20428;-76
2023/04/14 04:17:25;;;;;;;3.53;1.93;;;6.10;99.90;;;;;;5091759;28;20421;-76
2023/04/14 04:19:53;;;;;;;3.00;1.47;;;6.40;99.90;;;;;;5062724;28;20468;-75
2023/04/14 04:22:23;;;;;;;7.80;1.77;;;6.30;99.90;;;;;;5033691;28;20438;-76
2023/04/14 04:24:52;;;;;;;2.17;1.47;;;6.30;99.90;;;;;;5085766;28;20472;-75
2023/04/14 04:27:21;;;;;;;10.27;1.73;;;6.30;99.90;;;;;;5067789;28;20467;-75
2023/04/14 04:29:48;;;;;;;1.63;1.53;;;6.40;99.90;;;;;;5086051;28;20465;-74
2023/04/14 04:32:15;;;;;;;12.77;1.73;;;6.50;99.90;;;;;;5082896;28;20510;-76
2023/04/14 04:34:44;;;;;;;2.40;2.20;;;6.50;99.90;;;;;;5078837;28;20515;-75
2023/04/14 04:37:11;;;;;;;6.03;2.00;;;6.50;99.90;;;;;;5086442;28;20432;-75
2023/04/14 04:39:39;;;;;;;5.23;1.50;;;6.40;99.90;;;;;;5088019;28;20543;-75
2023/04/14 04:42:07;;;;;;;1.53;1.43;;;6.40;99.90;;;;;;5077567;28;20924;-75
2023/04/14 04:44:35;;;;;;;2.40;1.77;;;6.40;99.90;;;;;;5085118;28;20563;-76
2023/04/14 04:47:05;;;;;;;3.20;2.10;;;6.40;99.90;;;;;;5086477;28;20913;-76
2023/04/14 04:49:32;;;;;;;7.50;2.37;;;6.50;99.90;;;;;;5039597;28;21140;-76
2023/04/14 04:51:59;;;;;;;2.50;1.90;;;6.50;99.90;;;;;;5084009;28;20830;-75
2023/04/14 04:54:27;;;;;;;4.00;1.97;;;6.50;99.90;;;;;;5062916;28;20638;-75
2023/04/14 04:56:56;;;;;;;3.37;1.90;;;6.60;99.90;;;;;;5086446;28;20812;-75
2023/04/14 04:59:26;;;;;;;4.03;1.60;;;6.40;99.90;;;;;;5087209;28;20425;-75
2023/04/14 05:01:53;;;;;;;13.43;2.90;;;6.50;99.90;;;;;;5085061;28;20460;-73
2023/04/14 05:04:20;;;;;;;7.07;2.23;;;6.70;99.90;;;;;;5083705;28;20458;-75
2023/04/14 05:06:48;;;;;;;4.60;2.80;;;6.80;99.90;;;;;;5106393;28;20815;-75
2023/04/14 05:09:16;;;;;;;2.77;2.57;;;6.90;99.90;;;;;;5081291;28;20895;-75
2023/04/14 05:11:43;;;;;;;5.13;2.43;;;6.90;99.90;;;;;;5092943;28;20424;-75
2023/04/14 05:14:11;;;;;;;5.37;2.80;;;7.00;99.90;;;;;;5095626;28;20432;-75
2023/04/14 05:16:40;;;;;;;4.27;3.23;;;7.10;99.90;;;;;;5067446;28;20445;-75
2023/04/14 05:19:07;;;;;;;12.57;4.33;;;7.20;99.90;;;;;;5076993;28;20486;-75
2023/04/14 05:21:34;;;;;;;5.77;2.90;;;7.30;99.90;;;;;;5087084;28;20519;-75
2023/04/14 05:24:02;;;;;;;5.13;2.83;;;7.50;99.90;;;;;;5029825;28;20565;-75
2023/04/14 05:26:30;;;;;;;18.13;3.73;;;7.70;99.90;;;;;;5087996;28;20525;-76
2023/04/14 05:28:57;;;;;;;19.87;4.03;;;7.80;99.90;;;;;;5080722;28;20448;-74
2023/04/14 05:31:24;;;;;;;4.40;3.10;;;8.00;99.90;;;;;;5077483;28;20540;-74
2023/04/14 05:33:52;;;;;;;3.40;2.07;;;8.20;99.90;;;;;;5084912;28;20507;-74
2023/04/14 05:36:19;;;;;;;3.90;2.00;;;8.20;99.90;;;;;;5089140;28;20432;-74
2023/04/14 05:38:50;;;;;;;7.13;3.30;;;8.20;99.90;;;;;;5090223;28;20545;-75
2023/04/14 05:41:17;;;;;;;5.87;2.80;;;8.40;99.90;;;;;;5067882;28;20446;-75
2023/04/14 05:43:44;;;;;;;7.77;2.83;;;8.60;99.90;;;;;;5087811;28;21015;-75
2023/04/14 05:46:11;;;;;;;12.57;5.90;;;8.90;99.90;;;;;;5087050;28;20673;-74
2023/04/14 05:48:38;;;;;;;9.60;3.00;;;9.10;99.90;;;;;;5075387;28;20872;-74
2023/04/14 05:51:07;;;;;;;6.40;2.53;;;9.40;99.90;;;;;;5079080;28;20459;-75
2023/04/14 05:53:34;;;;;;;8.23;2.87;;;9.90;99.90;;;;;;5042983;28;20755;-75
2023/04/14 05:56:01;;;;;;;7.00;2.17;;;10.20;99.90;;;;;;5078269;28;20445;-75
2023/04/14 05:58:28;;;;;;;3.13;2.00;;;10.70;99.90;;;;;;5077757;28;20518;-75
2023/04/14 06:00:55;;;;;;;6.50;3.77;;;11.20;99.90;;;;;;5071403;28;20465;-75
2023/04/14 06:03:22;;;;;;;3.37;1.97;;;11.50;99.90;;;;;;5087306;28;20907;-75
2023/04/14 06:05:51;;;;;;;3.93;2.77;;;11.90;99.90;;;;;;5027100;28;20454;-75
2023/04/14 06:08:24;;;;;;;5.23;2.37;;;11.90;99.90;;;;;;5084618;28;20450;-75
2023/04/14 06:10:51;;;;;;;7.90;2.83;;;11.90;99.90;;;;;;5096383;28;20469;-76
2023/04/14 06:13:21;;;;;;;5.50;3.20;;;12.20;99.90;;;;;;5095491;28;20486;-76
2023/04/14 06:15:49;;;;;;;6.32;3.40;;;12.50;99.90;;;;;;5076540;28;20458;-76
2023/04/14 06:18:16;;;;;;;7.33;2.57;;;12.70;99.90;;;;;;5075444;28;20192;-76
2023/04/14 06:20:44;;;;;;;4.30;2.83;;;13.00;99.90;;;;;;5070351;28;20461;-76
2023/04/14 06:23:11;;;;;;;6.90;4.27;;;13.40;99.90;;;;;;5076203;28;20495;-76
2023/04/14 06:25:43;;;;;;;10.63;2.60;;;13.60;99.90;;;;;;5075654;28;20470;-76
2023/04/14 06:28:11;;;;;;;6.60;4.83;;;13.60;99.90;;;;;;5074341;28;20479;-76
2023/04/14 06:30:39;;;;;;;9.20;3.37;;;13.80;99.90;;;;;;5083789;28;20577;-76
2023/04/14 06:33:06;;;;;;;3.13;2.13;;;13.90;99.90;;;;;;5082445;28;20501;-76
2023/04/14 06:35:34;;;;;;;5.60;2.97;;;14.30;99.90;;;;;;5077654;28;20954;-76
2023/04/14 06:38:01;;;;;;;3.30;1.97;;;14.40;99.90;;;;;;5084598;28;21227;-76
2023/04/14 06:40:28;;;;;;;4.30;2.43;;;14.50;99.90;;;;;;5076879;28;20463;-76
2023/04/14 06:42:57;;;;;;;5.27;2.57;;;14.70;99.90;;;;;;5085420;28;20521;-75
2023/04/14 06:45:25;;;;;;;3.43;2.20;;;14.80;99.90;;;;;;5090843;28;20477;-76
2023/04/14 06:47:55;;;;;;;4.13;1.87;;;15.10;99.90;;;;;;5075439;28;20489;-76
2023/04/14 06:50:23;;;;;;;3.53;2.80;;;15.00;99.90;;;;;;5083594;28;20545;-76
2023/04/14 06:52:50;;;;;;;5.03;2.83;;;15.50;99.90;;;;;;5080712;28;20899;-76
2023/04/14 06:55:17;;;;;;;4.70;3.53;;;15.80;99.90;;;;;;5077808;28;20888;-76
2023/04/14 06:57:44;;;;;;;4.93;3.37;;;15.80;99.90;;;;;;5073991;28;20510;-76
2023/04/14 07:00:14;;;;;;;3.40;2.43;;;15.90;99.90;;;;;;5078963;28;20472;-75
2023/04/14 07:02:41;;;;;;;4.67;2.37;;;16.00;99.90;;;;;;5078392;28;20470;-76
2023/04/14 07:05:17;;;;;;;5.57;2.30;;;16.00;99.90;;;;;;5081560;28;20541;-76
2023/04/14 07:07:44;;;;;;;5.60;3.10;;;16.30;99.90;;;;;;5086907;28;20469;-76
2023/04/14 07:10:11;;;;;;;3.73;2.77;;;16.40;99.90;;;;;;5101914;28;20500;-76
2023/04/14 07:12:38;;;;;;;7.00;3.20;;;16.80;99.90;;;;;;5091929;28;20457;-76
2023/04/14 07:15:08;;;;;;;10.03;3.13;;;16.90;99.90;;;;;;5062848;28;20530;-76
2023/04/14 07:17:37;;;;;;;9.90;2.80;;;17.40;99.90;;;;;;5086388;28;20520;-76
2023/04/14 07:20:05;;;;;;;13.87;3.80;;;17.30;99.90;;;;;;5083633;28;20464;-76
2023/04/14 07:22:34;;;;;;;11.03;2.90;;;17.20;99.90;;;;;;5080671;28;20738;-76
2023/04/14 07:25:01;;;;;;;6.90;2.53;;;17.20;99.90;;;;;;5089232;28;20470;-76
2023/04/14 07:27:28;;;;;;;13.10;3.97;;;17.30;99.90;;;;;;5086557;28;20597;-76
2023/04/14 07:29:57;;;;;;;6.57;3.00;;;17.10;99.60;;;;;;5087718;28;20836;-78
2023/04/14 07:32:24;;;;;;;4.80;2.30;;;17.00;99.90;;;;;;5089072;28;20542;-76
2023/04/14 07:34:52;;;;;;;9.17;3.40;;;17.30;99.90;;;;;;5086885;28;20446;-77
2023/04/14 07:37:19;;;;;;;5.60;3.27;;;17.20;99.90;;;;;;5090216;28;20933;-76
2023/04/14 07:39:49;;;;;;;5.40;2.90;;;17.50;99.90;;;;;;5088291;28;20950;-76
2023/04/14 07:42:17;;;;;;;9.73;2.70;;;17.80;99.20;;;;;;5086299;28;20509;-76
2023/04/14 07:44:44;;;;;;;3.00;2.00;;;18.30;98.10;;;;;;5088086;28;20481;-76
2023/04/14 07:47:11;;;;;;;5.47;2.10;;;18.70;97.20;;;;;;5085592;28;21045;-77
2023/04/14 07:49:38;;;;;;;4.13;2.70;;;19.00;97.70;;;;;;5081693;28;20529;-76
2023/04/14 07:52:07;;;;;;;7.50;2.23;;;19.30;96.50;;;;;;5086492;28;20814;-76
2023/04/14 07:54:34;;;;;;;4.93;2.07;;;19.50;95.70;;;;;;5083202;28;20548;-76
2023/04/14 07:57:01;;;;;;;4.13;2.10;;;19.10;94.90;;;;;;5084187;28;20458;-76
2023/04/14 07:59:30;;;;;;;5.93;3.10;;;19.10;95.60;;;;;;5088246;28;20460;-76
2023/04/14 08:01:57;;;;;;;5.47;2.87;;;19.40;95.20;;;;;;5083795;28;21340;-76
2023/04/14 08:04:24;;;;;;;16.87;3.37;;;20.20;94.60;;;;;;5060770;28;20509;-73
2023/04/14 08:06:51;;;;;;;6.23;3.80;;;20.30;93.40;;;;;;5094119;28;20819;-76
2023/04/14 08:09:20;;;;;;;5.37;3.00;;;20.40;93.00;;;;;;5089172;28;20593;-76
2023/04/14 08:11:48;;;;;;;6.33;3.83;;;20.30;92.80;;;;;;5065323;28;21066;-76
2023/04/14 08:14:15;;;;;;;5.73;2.87;;;21.30;92.80;;;;;;5071162;28;20472;-75
2023/04/14 08:16:42;;;;;;;6.40;3.20;;;22.00;91.20;;;;;;5094336;28;20457;-74
2023/04/14 08:19:10;;;;;;;2.53;1.70;;;21.30;89.50;;;;;;5060280;28;20469;-74
2023/04/14 08:21:37;;;;;;;6.10;2.63;;;20.80;90.40;;;;;;5088679;28;20533;-75
2023/04/14 08:24:08;;;;;;;8.10;2.20;;;21.20;87.70;;;;;;5081130;28;20517;-75
2023/04/14 08:26:36;;;;;;;2.60;2.13;;;21.20;86.30;;;;;;5086391;28;20449;-74
2023/04/14 08:29:04;;;;;;;4.10;2.00;;;20.70;90.00;;;;;;5085653;28;20488;-74
2023/04/14 08:31:31;;;;;;;8.37;3.03;;;21.20;87.20;;;;;;5080762;28;20457;-75
2023/04/14 08:33:58;;;;;;;5.30;2.50;;;21.90;87.30;;;;;;5078701;28;21103;-74
2023/04/14 08:36:26;;;;;;;7.77;2.33;;;21.90;85.70;;;;;;5083109;28;21005;-75
2023/04/14 08:38:54;;;;;;;6.27;2.93;;;22.40;85.10;;;;;;5087667;28;20458;-75
2023/04/14 08:41:22;;;;;;;4.43;2.00;;;23.10;81.30;;;;;;5082048;28;20462;-75
2023/04/14 08:43:50;;;;;;;7.10;2.87;;;23.20;80.50;;;;;;5085733;28;20462;-75
2023/04/14 08:46:20;;;;;;;8.20;2.90;;;22.60;78.00;;;;;;5079541;28;21029;-75
2023/04/14 08:48:49;;;;;;;5.70;2.93;;;22.60;77.80;;;;;;5058807;28;20454;-75
2023/04/14 08:51:32;;;;;;;3.97;2.80;;;23.30;77.40;;;;;;5062081;28;20450;-76
2023/04/14 08:54:01;;;;;;;8.23;2.57;;;23.00;76.30;;;;;;5079579;28;20490;-75
2023/04/14 08:56:37;;;;;;;13.67;4.50;;;22.00;77.70;;;;;;5089317;28;20528;-75
2023/04/14 08:59:07;;;;;;;4.33;2.40;;;21.50;79.70;;;;;;5091491;28;20450;-75
2023/04/14 09:01:37;;;;;;;9.80;3.00;;;21.60;81.90;;;;;;5089388;28;21143;-75
2023/04/14 09:04:06;;;;;;;9.37;4.13;;;21.80;79.70;;;;;;5083840;28;20453;-76
2023/04/14 09:06:34;;;;;;;5.70;2.60;;;22.70;77.80;;;;;;5091663;28;20600;-75
2023/04/14 09:09:02;;;;;;;14.10;2.50;;;23.40;71.50;;;;;;5087559;28;20449;-75
2023/04/14 09:11:31;;;;;;;4.53;1.93;;;23.50;69.80;;;;;;5077342;28;20483;-75
2023/04/14 09:14:00;;;;;;;10.20;2.57;;;23.80;68.10;;;;;;5088539;28;20571;-76
2023/04/14 09:16:29;;;;;;;5.37;2.03;;;24.20;67.70;;;;;;5087599;28;20842;-76
2023/04/14 09:18:57;;;;;;;2.90;1.13;;;24.80;61.80;;;;;;5088679;28;20468;-75
2023/04/14 09:21:26;;;;;;;2.23;1.60;;;23.30;61.00;;;;;;5081913;28;20937;-76
2023/04/14 09:23:53;;;;;;;2.70;1.37;;;22.80;62.90;;;;;;5088492;28;20500;-75
2023/04/14 09:26:21;;;;;;;2.17;1.37;;;21.70;60.70;;;;;;5057521;28;20601;-76
2023/04/14 09:28:48;;;;;;;6.60;1.67;;;21.50;61.80;;;;;;5082790;28;20493;-75
2023/04/14 09:31:15;;;;;;;3.30;1.33;;;22.20;60.40;;;;;;5088415;28;21235;-75
2023/04/14 09:33:51;;;;;;;4.67;1.90;;;22.80;58.60;;;;;;5078528;28;20569;-78
2023/04/14 09:36:19;;;;;;;5.47;3.03;;;22.70;58.70;;;;;;5074385;28;20457;-76
2023/04/14 09:38:47;;;;;;;5.33;2.50;;;23.30;59.30;;;;;;5074281;28;20546;-75
2023/04/14 09:41:16;;;;;;;3.13;2.27;;;23.30;58.80;;;;;;5087436;28;20450;-75
2023/04/14 09:43:44;;;;;;;4.50;1.50;;;22.80;60.50;;;;;;5077371;28;20993;-76
2023/04/14 09:46:12;;;;;;;4.33;2.13;;;21.80;62.10;;;;;;5076404;28;20517;-76
2023/04/14 09:48:52;;;;;;;3.17;1.80;;;22.50;62.30;;;;;;5082944;28;20536;-76
2023/04/14 09:51:31;;;;;;;4.90;1.93;;;23.70;62.00;;;;;;5083192;28;20472;-76
2023/04/14 09:54:03;;;;;;;4.33;2.50;;;24.40;60.40;;;;;;5081857;28;20477;-75
2023/04/14 09:56:30;;;;;;;5.20;1.47;;;24.40;59.80;;;;;;5088275;28;20473;-75
2023/04/14 09:58:59;;;;;;;7.67;1.93;;;25.30;58.20;;;;;;5080552;28;20559;-75
2023/04/14 10:01:30;;;;;;;2.90;1.50;;;25.60;57.70;;;;;;5082277;28;20545;-76
2023/04/14 10:04:00;;;;;;;7.87;3.33;;;24.10;57.40;;;;;;5103681;28;20461;-76
2023/04/14 10:06:30;;;;;;;4.97;1.70;;;22.60;58.70;;;;;;5072680;28;21040;-75
2023/04/14 10:08:57;;;;;;;9.47;2.10;;;23.10;58.90;;;;;;5080353;28;20475;-75
2023/04/14 10:11:25;;;;;;;4.97;1.80;;;24.00;58.20;;;;;;5080491;28;20458;-75
2023/04/14 10:13:58;;;;;;;1.90;1.70;;;23.50;57.10;;;;;;5074888;28;20589;-75
2023/04/14 10:16:26;;;;;;;3.30;2.27;;;23.80;57.30;;;;;;5071591;28;20464;-75
2023/04/14 10:19:08;;;;;;;7.00;2.17;;;24.10;57.40;;;;;;5089092;28;20544;-75
2023/04/14 10:21:35;;;;;;;3.57;2.20;;;23.10;56.60;;;;;;5090020;28;20509;-75
2023/04/14 10:24:02;;;;;;;9.10;2.43;;;20.90;58.40;;;;;;5076819;28;20474;-75
2023/04/14 10:26:30;;;;;;;2.30;1.97;;;21.40;63.50;;;;;;5088583;28;20482;-75
2023/04/14 10:28:57;;;;;;;2.53;1.80;;;22.50;59.70;;;;;;5085826;28;20473;-76
2023/04/14 10:31:28;;;;;;;2.60;1.73;;;23.40;61.60;;;;;;5082677;28;20558;-76
2023/04/14 10:33:55;;;;;;;5.77;1.93;;;24.70;59.20;;;;;;5085674;28;20743;-76
2023/04/14 10:36:30;;;;;;;3.23;1.63;;;25.80;57.00;;;;;;5085141;28;20567;-76
2023/04/14 10:39:01;;;;;;;3.50;1.63;;;25.90;55.40;;;;;;5085753;28;20534;-75
2023/04/14 10:41:37;;;;;;;6.43;1.70;;;25.10;54.30;;;;;;5089727;28;20830;-76
2023/04/14 10:44:04;;;;;;;5.07;2.13;;;24.70;56.60;;;;;;5085420;28;20484;-76
2023/04/14 10:46:43;;;;;;;5.07;1.80;;;25.50;54.70;;;;;;5084408;28;20996;-77
2023/04/14 10:49:12;;;;;;;7.63;2.10;;;24.70;54.80;;;;;;5063761;28;20452;-76
2023/04/14 10:51:41;;;;;;;7.83;2.10;;;24.80;54.80;;;;;;5087248;28;20465;-76
2023/04/14 10:54:16;;;;;;;3.27;1.80;;;25.50;55.40;;;;;;5089355;28;21020;-77
2023/04/14 10:57:10;;;;;;;3.50;1.80;;;26.80;53.30;;;;;;5071780;28;20860;-76
2023/04/14 10:59:43;;;;;;;3.73;1.93;;;24.80;51.70;;;;;;5081624;28;20551;-76
2023/04/14 11:02:28;;;;;;;9.23;2.47;;;23.90;55.80;;;;;;5096947;28;20459;-75
2023/04/14 11:05:02;;;;;;;3.83;2.20;;;25.30;54.90;;;;;;5065829;28;20473;-75
2023/04/14 11:07:32;;;;;;;4.00;1.60;;;25.90;53.90;;;;;;5066703;28;20890;-74
2023/04/14 11:10:14;;;;;;;4.67;1.90;;;26.20;51.20;;;;;;5083366;28;20822;-75
2023/04/14 11:12:43;;;;;;;4.10;1.63;;;26.80;52.20;;;;;;5073836;28;20569;-75
2023/04/14 11:15:11;;;;;;;5.40;2.57;;;26.70;50.40;;;;;;5076358;28;20537;-75
2023/04/14 11:17:38;;;;;;;2.20;1.60;;;25.80;50.70;;;;;;5078902;28;20549;-75
2023/04/14 11:20:14;;;;;;;4.00;1.67;;;25.70;52.40;;;;;;5082718;28;20544;-75
2023/04/14 11:22:44;;;;;;;8.50;2.53;;;25.80;51.70;;;;;;5078443;28;20480;-75
2023/04/14 11:25:13;;;;;;;2.47;1.67;;;26.40;51.60;;;;;;5040711;28;20836;-76
2023/04/14 11:27:40;;;;;;;3.63;2.07;;;27.20;49.80;;;;;;5080779;28;20715;-76
2023/04/14 11:30:09;;;;;;;3.43;1.83;;;25.60;50.20;;;;;;5082977;28;20457;-75
2023/04/14 11:32:49;;;;;;;6.30;1.87;;;25.90;49.90;;;;;;5089878;28;20469;-75
2023/04/14 11:35:17;;;;;;;2.47;1.30;;;26.30;48.70;;;;;;5082229;28;20454;-75
2023/04/14 11:37:45;;;;;;;2.37;1.40;;;27.00;49.60;;;;;;5083824;28;20470;-76
2023/04/14 11:40:14;;;;;;;2.37;1.33;;;25.90;48.40;;;;;;5087272;28;20450;-75
2023/04/14 11:42:46;;;;;;;2.17;1.20;;;23.30;50.80;;;;;;5046590;28;20993;-75
2023/04/14 11:45:16;;;;;;;1.90;1.37;;;21.60;53.80;;;;;;5097057;28;20541;-74
2023/04/14 11:47:56;;;;;;;5.00;1.97;;;20.70;54.90;;;;;;5075929;28;21012;-75
2023/04/14 11:50:25;;;;;;;1.93;1.17;;;20.30;54.60;;;;;;5088738;28;20445;-74
2023/04/14 11:52:56;;;;;;;7.20;2.03;;;20.10;55.10;;;;;;5086924;28;20489;-75
2023/04/14 11:55:23;;;;;;;3.50;1.57;;;20.30;55.20;;;;;;5080019;28;20868;-75
2023/04/14 11:57:51;;;;;;;5.67;1.70;;;20.50;56.10;;;;;;5092400;28;20450;-75
2023/04/14 12:00:18;;;;;;;3.63;1.80;;;21.50;56.60;;;;;;5076406;28;20491;-74
2023/04/14 12:02:46;;;;;;;2.70;1.57;;;21.00;54.60;;;;;;5083192;28;20797;-74
2023/04/14 12:05:16;;;;;;;4.40;2.43;;;20.90;55.90;;;;;;5087635;28;20547;-75
2023/04/14 12:07:44;;;;;;;6.40;2.03;;;22.30;55.70;;;;;;5080522;28;20579;-75
2023/04/14 12:10:13;;;;;;;4.90;1.50;;;22.70;54.20;;;;;;5044517;28;20828;-74
2023/04/14 12:12:40;;;;;;;3.10;1.77;;;22.50;53.90;;;;;;5087866;28;20856;-75
2023/04/14 12:15:09;;;;;;;4.77;1.80;;;21.00;53.80;;;;;;5088246;28;20457;-74
2023/04/14 12:17:38;;;;;;;5.67;1.87;;;20.30;54.20;;;;;;5049233;28;20534;-76
2023/04/14 12:20:06;;;;;;;6.87;1.50;;;20.10;54.90;;;;;;5085659;28;20887;-75
2023/04/14 12:22:34;;;;;;;2.13;1.40;;;20.50;55.30;;;;;;5078869;28;20979;-76
2023/04/14 12:25:12;;;;;;;3.27;1.43;;;20.50;54.60;;;;;;5088950;28;20446;-76
2023/04/14 12:27:39;;;;;;;3.83;1.67;;;20.40;54.50;;;;;;5045833;28;20457;-77
2023/04/14 12:30:08;;;;;;;7.13;1.83;;;20.50;54.30;;;;;;5085462;28;20454;-76
2023/04/14 12:32:39;;;;;;;1.80;1.37;;;20.20;54.90;;;;;;5082087;28;20476;-76
2023/04/14 12:35:07;;;;;;;4.33;1.80;;;20.00;54.60;;;;;;5080971;28;20460;-76
2023/04/14 12:37:35;;;;;;;8.07;1.60;;;20.40;56.30;;;;;;5090598;28;20525;-76
2023/04/14 12:40:05;;;;;;;4.80;1.60;;;20.70;54.50;;;;;;5088673;28;20541;-76
2023/04/14 12:42:46;;;;;;;8.00;1.37;;;20.90;55.70;;;;;;5082262;28;20484;-76
2023/04/14 12:45:13;;;;;;;4.23;2.17;;;21.20;55.50;;;;;;5090679;28;20433;-77
2023/04/14 12:47:40;;;;;;;2.47;1.33;;;21.30;56.10;;;;;;5086932;28;20456;-76
2023/04/14 12:50:26;;;;;;;3.50;1.30;;;21.00;55.00;;;;;;5082669;28;20880;-76
2023/04/14 12:52:58;;;;;;;3.97;1.30;;;20.80;54.50;;;;;;5088392;28;21045;-76
2023/04/14 12:55:27;;;;;;;2.17;1.57;;;19.80;55.00;;;;;;5081632;28;20548;-76
2023/04/14 12:57:57;;;;;;;6.43;1.77;;;19.00;56.60;;;;;;5088155;28;20464;-76
2023/04/14 13:00:26;;;;;;;4.33;1.80;;;19.20;56.50;;;;;;5099151;28;20446;-76
2023/04/14 13:02:54;;;;;;;7.10;1.57;;;20.90;57.20;;;;;;5080368;28;20485;-77